sensor_id;sensor_type;location;lat;lon;timestamp;temperature;humidity
23815;DHT22;12088;53.078;8.720;2022-08-16T00:01:07;19.90;99.90
23815;DHT22;12088;53.078;8.720;2022-08-16T00:03:33;19.90;99.90
23815;DHT22;12088;53.078;8.720;2022-08-16T00:05:58;19.80;99.90
23815;DHT22;12088;53.078;8.720;2022-08-16T00:08:24;19.70;99.90
23815;DHT22;12088;53.078;8.720;2022-08-16T00:10:50;19.70;99.90
23815;DHT22;12088;53.078;8.720;2022-08-16T00:13:16;19.60;99.90
23815;DHT22;12088;53.078;8.720;2022-08-16T00:15:45;19.60;99.90
23815;DHT22;12088;53.078;8.720;2022-08-16T00:18:12;19.60;99.90
23815;DHT22;12088;53.078;8.720;2022-08-16T00:20:39;19.50;99.90
23815;DHT22;12088;53.078;8.720;2022-08-16T00:23:05;19.50;99.90
23815;DHT22;12088;53.078;8.720;2022-08-16T00:25:31;19.50;99.90
23815;DHT22;12088;53.078;8.720;2022-08-16T00:27:57;19.50;99.90
23815;DHT22;12088;53.078;8.720;2022-08-16T00:30:23;19.60;99.90
23815;DHT22;12088;53.078;8.720;2022-08-16T00:32:52;19.70;99.90
23815;DHT22;12088;53.078;8.720;2022-08-16T00:35:22;19.70;99.90
23815;DHT22;12088;53.078;8.720;2022-08-16T00:37:49;19.60;99.90
23815;DHT22;12088;53.078;8.720;2022-08-16T00:40:21;19.60;99.90
23815;DHT22;12088;53.078;8.720;2022-08-16T00:42:47;19.60;99.90
23815;DHT22;12088;53.078;8.720;2022-08-16T00:45:38;19.60;99.90
23815;DHT22;12088;53.078;8.720;2022-08-16T00:48:08;19.60;99.90
23815;DHT22;12088;53.078;8.720;2022-08-16T00:50:36;19.60;99.90
23815;DHT22;12088;53.078;8.720;2022-08-16T00:53:03;19.60;99.90
23815;DHT22;12088;53.078;8.720;2022-08-16T00:55:29;19.60;99.90
23815;DHT22;12088;53.078;8.720;2022-08-16T00:57:55;19.60;99.90
23815;DHT22;12088;53.078;8.720;2022-08-16T01:00:22;19.60;99.90
23815;DHT22;12088;53.078;8.720;2022-08-16T01:02:52;19.60;99.90
23815;DHT22;12088;53.078;8.720;2022-08-16T01:05:18;19.60;99.90
23815;DHT22;12088;53.078;8.720;2022-08-16T01:07:44;19.50;99.90
23815;DHT22;12088;53.078;8.720;2022-08-16T01:10:10;19.50;99.90
23815;DHT22;12088;53.078;8.720;2022-08-16T01:12:36;19.40;99.90
23815;DHT22;12088;53.078;8.720;2022-08-16T01:15:02;19.40;99.90
23815;DHT22;12088;53.078;8.720;2022-08-16T01:17:29;19.30;99.90
23815;DHT22;12088;53.078;8.720;2022-08-16T01:19:59;19.20;99.90
23815;DHT22;12088;53.078;8.720;2022-08-16T01:22:42;19.20;99.90
23815;DHT22;12088;53.078;8.720;2022-08-16T01:25:15;19.20;99.90
23815;DHT22;12088;53.078;8.720;2022-08-16T01:27:44;19.40;99.90
23815;DHT22;12088;53.078;8.720;2022-08-16T01:30:21;19.40;99.90
23815;DHT22;12088;53.078;8.720;2022-08-16T01:32:49;19.50;99.90
23815;DHT22;12088;53.078;8.720;2022-08-16T01:35:33;19.50;99.90
23815;DHT22;12088;53.078;8.720;2022-08-16T01:38:24;19.50;99.90
23815;DHT22;12088;53.078;8.720;2022-08-16T01:40:59;19.60;99.90
23815;DHT22;12088;53.078;8.720;2022-08-16T01:43:25;19.60;99.90
23815;DHT22;12088;53.078;8.720;2022-08-16T01:45:55;19.50;99.90
23815;DHT22;12088;53.078;8.720;2022-08-16T01:48:23;19.50;99.90
23815;DHT22;12088;53.078;8.720;2022-08-16T01:50:51;19.50;99.90
23815;DHT22;12088;53.078;8.720;2022-08-16T01:53:17;19.50;99.90
23815;DHT22;12088;53.078;8.720;2022-08-16T01:55:42;19.60;99.90
23815;DHT22;12088;53.078;8.720;2022-08-16T01:58:10;19.70;99.90
23815;DHT22;12088;53.078;8.720;2022-08-16T02:00:39;19.80;99.90
23815;DHT22;12088;53.078;8.720;2022-08-16T02:03:04;19.70;99.90
23815;DHT22;12088;53.078;8.720;2022-08-16T02:05:30;19.70;99.90
23815;DHT22;12088;53.078;8.720;2022-08-16T02:07:55;19.70;99.90
23815;DHT22;12088;53.078;8.720;2022-08-16T02:10:22;19.70;99.90
23815;DHT22;12088;53.078;8.720;2022-08-16T02:12:48;19.70;99.90
23815;DHT22;12088;53.078;8.720;2022-08-16T02:15:14;19.70;99.90
23815;DHT22;12088;53.078;8.720;2022-08-16T02:17:40;19.60;99.90
23815;DHT22;12088;53.078;8.720;2022-08-16T02:20:07;19.50;99.90
23815;DHT22;12088;53.078;8.720;2022-08-16T02:22:34;19.40;99.90
23815;DHT22;12088;53.078;8.720;2022-08-16T02:24:59;19.40;99.90
23815;DHT22;12088;53.078;8.720;2022-08-16T02:27:25;19.40;99.90
23815;DHT22;12088;53.078;8.720;2022-08-16T02:29:50;19.30;99.90
23815;DHT22;12088;53.078;8.720;2022-08-16T02:32:16;19.30;99.90
23815;DHT22;12088;53.078;8.720;2022-08-16T02:34:42;19.30;99.90
23815;DHT22;12088;53.078;8.720;2022-08-16T02:37:08;19.20;99.90
23815;DHT22;12088;53.078;8.720;2022-08-16T02:39:34;19.20;99.90
23815;DHT22;12088;53.078;8.720;2022-08-16T02:42:00;19.20;99.90
23815;DHT22;12088;53.078;8.720;2022-08-16T02:44:25;19.20;99.90
23815;DHT22;12088;53.078;8.720;2022-08-16T02:46:51;19.20;99.90
23815;DHT22;12088;53.078;8.720;2022-08-16T02:49:16;19.20;99.90
23815;DHT22;12088;53.078;8.720;2022-08-16T02:51:42;19.20;99.90
23815;DHT22;12088;53.078;8.720;2022-08-16T02:54:08;19.20;99.90
23815;DHT22;12088;53.078;8.720;2022-08-16T02:56:34;19.20;99.90
23815;DHT22;12088;53.078;8.720;2022-08-16T02:59:00;19.30;99.90
23815;DHT22;12088;53.078;8.720;2022-08-16T03:01:28;19.30;99.90
23815;DHT22;12088;53.078;8.720;2022-08-16T03:03:54;19.20;99.90
23815;DHT22;12088;53.078;8.720;2022-08-16T03:06:21;19.20;99.90
23815;DHT22;12088;53.078;8.720;2022-08-16T03:08:48;19.20;99.90
23815;DHT22;12088;53.078;8.720;2022-08-16T03:11:15;19.20;99.90
23815;DHT22;12088;53.078;8.720;2022-08-16T03:13:42;19.10;99.90
23815;DHT22;12088;53.078;8.720;2022-08-16T03:16:08;19.10;99.90
23815;DHT22;12088;53.078;8.720;2022-08-16T03:18:33;19.10;99.90
23815;DHT22;12088;53.078;8.720;2022-08-16T03:20:59;19.10;99.90
23815;DHT22;12088;53.078;8.720;2022-08-16T03:23:26;19.20;99.90
23815;DHT22;12088;53.078;8.720;2022-08-16T03:25:51;19.20;99.90
23815;DHT22;12088;53.078;8.720;2022-08-16T03:28:17;19.20;99.90
23815;DHT22;12088;53.078;8.720;2022-08-16T03:30:43;19.20;99.90
23815;DHT22;12088;53.078;8.720;2022-08-16T03:33:08;19.10;99.90
23815;DHT22;12088;53.078;8.720;2022-08-16T03:35:36;19.00;99.90
23815;DHT22;12088;53.078;8.720;2022-08-16T03:38:05;19.00;99.90
23815;DHT22;12088;53.078;8.720;2022-08-16T03:40:33;18.90;99.90
23815;DHT22;12088;53.078;8.720;2022-08-16T03:42:59;18.80;99.90
23815;DHT22;12088;53.078;8.720;2022-08-16T03:45:25;18.80;99.90
23815;DHT22;12088;53.078;8.720;2022-08-16T03:47:51;18.70;99.90
23815;DHT22;12088;53.078;8.720;2022-08-16T03:50:17;18.70;99.90
23815;DHT22;12088;53.078;8.720;2022-08-16T03:52:43;18.70;99.90
23815;DHT22;12088;53.078;8.720;2022-08-16T03:55:09;18.60;99.90
23815;DHT22;12088;53.078;8.720;2022-08-16T03:57:35;18.60;99.90
23815;DHT22;12088;53.078;8.720;2022-08-16T04:00:08;18.70;99.90
23815;DHT22;12088;53.078;8.720;2022-08-16T04:02:38;18.70;99.90
23815;DHT22;12088;53.078;8.720;2022-08-16T04:05:05;18.70;99.90
23815;DHT22;12088;53.078;8.720;2022-08-16T04:07:31;18.70;99.90
23815;DHT22;12088;53.078;8.720;2022-08-16T04:09:57;18.70;99.90
23815;DHT22;12088;53.078;8.720;2022-08-16T04:12:22;18.70;99.90
23815;DHT22;12088;53.078;8.720;2022-08-16T04:14:48;18.70;99.90
23815;DHT22;12088;53.078;8.720;2022-08-16T04:17:14;18.70;99.90
23815;DHT22;12088;53.078;8.720;2022-08-16T04:19:40;18.70;99.90
23815;DHT22;12088;53.078;8.720;2022-08-16T04:22:06;18.70;99.90
23815;DHT22;12088;53.078;8.720;2022-08-16T04:24:32;18.70;99.90
23815;DHT22;12088;53.078;8.720;2022-08-16T04:26:58;18.80;99.90
23815;DHT22;12088;53.078;8.720;2022-08-16T04:29:23;18.70;99.90
23815;DHT22;12088;53.078;8.720;2022-08-16T04:31:50;18.80;99.90
23815;DHT22;12088;53.078;8.720;2022-08-16T04:34:15;18.90;99.90
23815;DHT22;12088;53.078;8.720;2022-08-16T04:36:41;19.00;99.90
23815;DHT22;12088;53.078;8.720;2022-08-16T04:39:06;19.00;99.90
23815;DHT22;12088;53.078;8.720;2022-08-16T04:41:32;19.10;99.90
23815;DHT22;12088;53.078;8.720;2022-08-16T04:43:58;19.00;99.90
23815;DHT22;12088;53.078;8.720;2022-08-16T04:46:24;19.00;99.90
23815;DHT22;12088;53.078;8.720;2022-08-16T04:48:50;19.00;99.90
23815;DHT22;12088;53.078;8.720;2022-08-16T04:51:15;18.90;99.90
23815;DHT22;12088;53.078;8.720;2022-08-16T04:53:41;18.90;99.90
23815;DHT22;12088;53.078;8.720;2022-08-16T04:56:07;18.80;99.90
23815;DHT22;12088;53.078;8.720;2022-08-16T04:58:32;18.90;99.90
23815;DHT22;12088;53.078;8.720;2022-08-16T05:00:59;18.90;99.90
23815;DHT22;12088;53.078;8.720;2022-08-16T05:03:25;19.00;99.90
23815;DHT22;12088;53.078;8.720;2022-08-16T05:05:51;19.00;99.90
23815;DHT22;12088;53.078;8.720;2022-08-16T05:08:17;19.10;99.90
23815;DHT22;12088;53.078;8.720;2022-08-16T05:10:43;19.20;99.90
23815;DHT22;12088;53.078;8.720;2022-08-16T05:13:08;19.20;99.90
23815;DHT22;12088;53.078;8.720;2022-08-16T05:15:34;19.20;99.90
23815;DHT22;12088;53.078;8.720;2022-08-16T05:18:00;19.20;99.90
23815;DHT22;12088;53.078;8.720;2022-08-16T05:20:26;19.20;99.90
23815;DHT22;12088;53.078;8.720;2022-08-16T05:22:52;19.30;99.90
23815;DHT22;12088;53.078;8.720;2022-08-16T05:25:19;19.40;99.90
23815;DHT22;12088;53.078;8.720;2022-08-16T05:27:45;19.50;99.90
23815;DHT22;12088;53.078;8.720;2022-08-16T05:30:12;19.60;99.90
23815;DHT22;12088;53.078;8.720;2022-08-16T05:32:38;19.70;99.90
23815;DHT22;12088;53.078;8.720;2022-08-16T05:35:06;19.80;99.90
23815;DHT22;12088;53.078;8.720;2022-08-16T05:37:37;19.90;99.90
23815;DHT22;12088;53.078;8.720;2022-08-16T05:40:04;20.00;99.90
23815;DHT22;12088;53.078;8.720;2022-08-16T05:42:30;20.10;99.90
23815;DHT22;12088;53.078;8.720;2022-08-16T05:44:56;20.20;99.90
23815;DHT22;12088;53.078;8.720;2022-08-16T05:47:21;20.20;99.90
23815;DHT22;12088;53.078;8.720;2022-08-16T05:49:47;20.30;99.90
23815;DHT22;12088;53.078;8.720;2022-08-16T05:52:12;20.40;99.90
23815;DHT22;12088;53.078;8.720;2022-08-16T05:54:39;20.50;99.90
23815;DHT22;12088;53.078;8.720;2022-08-16T05:57:05;20.60;99.90
23815;DHT22;12088;53.078;8.720;2022-08-16T05:59:30;20.70;99.90
23815;DHT22;12088;53.078;8.720;2022-08-16T06:01:56;20.80;99.90
23815;DHT22;12088;53.078;8.720;2022-08-16T06:04:22;20.80;99.90
23815;DHT22;12088;53.078;8.720;2022-08-16T06:06:48;20.90;99.90
23815;DHT22;12088;53.078;8.720;2022-08-16T06:09:15;21.00;99.90
23815;DHT22;12088;53.078;8.720;2022-08-16T06:11:41;21.00;99.90
23815;DHT22;12088;53.078;8.720;2022-08-16T06:14:07;21.10;99.90
23815;DHT22;12088;53.078;8.720;2022-08-16T06:16:33;21.20;99.90
23815;DHT22;12088;53.078;8.720;2022-08-16T06:18:59;21.30;99.90
23815;DHT22;12088;53.078;8.720;2022-08-16T06:21:24;21.50;99.90
23815;DHT22;12088;53.078;8.720;2022-08-16T06:23:51;21.70;99.90
23815;DHT22;12088;53.078;8.720;2022-08-16T06:26:16;21.80;99.90
23815;DHT22;12088;53.078;8.720;2022-08-16T06:28:42;22.00;99.90
23815;DHT22;12088;53.078;8.720;2022-08-16T06:31:09;22.20;99.90
23815;DHT22;12088;53.078;8.720;2022-08-16T06:33:35;22.50;99.90
23815;DHT22;12088;53.078;8.720;2022-08-16T06:36:01;22.70;99.90
23815;DHT22;12088;53.078;8.720;2022-08-16T06:38:27;23.00;99.90
23815;DHT22;12088;53.078;8.720;2022-08-16T06:40:53;23.10;99.90
23815;DHT22;12088;53.078;8.720;2022-08-16T06:43:19;23.20;99.90
23815;DHT22;12088;53.078;8.720;2022-08-16T06:45:46;23.40;99.90
23815;DHT22;12088;53.078;8.720;2022-08-16T06:48:12;23.60;99.90
23815;DHT22;12088;53.078;8.720;2022-08-16T06:50:38;23.70;99.90
23815;DHT22;12088;53.078;8.720;2022-08-16T06:53:04;24.00;99.90
23815;DHT22;12088;53.078;8.720;2022-08-16T06:55:31;24.30;99.90
23815;DHT22;12088;53.078;8.720;2022-08-16T06:57:58;24.50;99.90
23815;DHT22;12088;53.078;8.720;2022-08-16T07:00:24;24.90;99.90
23815;DHT22;12088;53.078;8.720;2022-08-16T07:02:50;24.70;99.90
23815;DHT22;12088;53.078;8.720;2022-08-16T07:05:17;24.70;99.90
23815;DHT22;12088;53.078;8.720;2022-08-16T07:07:45;24.70;99.90
23815;DHT22;12088;53.078;8.720;2022-08-16T07:10:12;24.60;99.90
23815;DHT22;12088;53.078;8.720;2022-08-16T07:12:39;24.50;99.90
23815;DHT22;12088;53.078;8.720;2022-08-16T07:15:05;24.60;99.90
23815;DHT22;12088;53.078;8.720;2022-08-16T07:17:31;24.50;99.90
23815;DHT22;12088;53.078;8.720;2022-08-16T07:19:58;24.60;99.90
23815;DHT22;12088;53.078;8.720;2022-08-16T07:22:24;24.60;99.90
23815;DHT22;12088;53.078;8.720;2022-08-16T07:24:49;24.60;99.90
23815;DHT22;12088;53.078;8.720;2022-08-16T07:27:15;24.60;99.90
23815;DHT22;12088;53.078;8.720;2022-08-16T07:29:41;24.50;99.90
23815;DHT22;12088;53.078;8.720;2022-08-16T07:32:06;24.50;99.90
23815;DHT22;12088;53.078;8.720;2022-08-16T07:34:32;24.70;99.90
23815;DHT22;12088;53.078;8.720;2022-08-16T07:37:05;24.80;99.90
23815;DHT22;12088;53.078;8.720;2022-08-16T07:39:31;24.90;99.90
23815;DHT22;12088;53.078;8.720;2022-08-16T07:41:57;25.10;99.90
23815;DHT22;12088;53.078;8.720;2022-08-16T07:44:22;25.10;99.90
23815;DHT22;12088;53.078;8.720;2022-08-16T07:46:48;25.10;99.90
23815;DHT22;12088;53.078;8.720;2022-08-16T07:49:13;25.20;99.90
23815;DHT22;12088;53.078;8.720;2022-08-16T07:51:39;25.30;99.90
23815;DHT22;12088;53.078;8.720;2022-08-16T07:54:07;25.70;99.90
23815;DHT22;12088;53.078;8.720;2022-08-16T07:56:33;26.00;99.90
23815;DHT22;12088;53.078;8.720;2022-08-16T07:58:58;26.20;99.90
23815;DHT22;12088;53.078;8.720;2022-08-16T08:01:25;26.10;99.90
23815;DHT22;12088;53.078;8.720;2022-08-16T08:03:51;26.10;99.90
23815;DHT22;12088;53.078;8.720;2022-08-16T08:06:22;25.90;99.90
23815;DHT22;12088;53.078;8.720;2022-08-16T08:08:48;25.80;99.90
23815;DHT22;12088;53.078;8.720;2022-08-16T08:11:14;25.90;99.90
23815;DHT22;12088;53.078;8.720;2022-08-16T08:13:40;26.00;99.90
23815;DHT22;12088;53.078;8.720;2022-08-16T08:16:05;26.10;99.90
23815;DHT22;12088;53.078;8.720;2022-08-16T08:18:31;26.10;99.90
23815;DHT22;12088;53.078;8.720;2022-08-16T08:20:57;26.30;99.90
23815;DHT22;12088;53.078;8.720;2022-08-16T08:23:22;26.30;99.90
23815;DHT22;12088;53.078;8.720;2022-08-16T08:25:49;26.50;99.90
23815;DHT22;12088;53.078;8.720;2022-08-16T08:28:16;26.70;99.90
23815;DHT22;12088;53.078;8.720;2022-08-16T08:30:42;26.80;99.90
23815;DHT22;12088;53.078;8.720;2022-08-16T08:33:08;26.90;99.90
23815;DHT22;12088;53.078;8.720;2022-08-16T08:35:34;26.90;99.90
23815;DHT22;12088;53.078;8.720;2022-08-16T08:38:00;27.20;99.90
23815;DHT22;12088;53.078;8.720;2022-08-16T08:40:27;27.50;99.90
23815;DHT22;12088;53.078;8.720;2022-08-16T08:42:58;27.80;99.90
23815;DHT22;12088;53.078;8.720;2022-08-16T08:45:24;28.10;99.90
23815;DHT22;12088;53.078;8.720;2022-08-16T08:47:49;28.40;99.90
23815;DHT22;12088;53.078;8.720;2022-08-16T08:50:15;28.80;99.90
23815;DHT22;12088;53.078;8.720;2022-08-16T08:52:43;29.20;99.90
23815;DHT22;12088;53.078;8.720;2022-08-16T08:55:11;29.40;99.90
23815;DHT22;12088;53.078;8.720;2022-08-16T08:57:39;29.70;99.90
23815;DHT22;12088;53.078;8.720;2022-08-16T09:00:05;29.80;99.90
23815;DHT22;12088;53.078;8.720;2022-08-16T09:02:31;29.80;99.90
23815;DHT22;12088;53.078;8.720;2022-08-16T09:04:57;30.30;99.90
23815;DHT22;12088;53.078;8.720;2022-08-16T09:07:22;30.80;99.90
23815;DHT22;12088;53.078;8.720;2022-08-16T09:09:48;30.90;99.90
23815;DHT22;12088;53.078;8.720;2022-08-16T09:12:14;30.70;99.90
23815;DHT22;12088;53.078;8.720;2022-08-16T09:14:42;30.00;99.90
23815;DHT22;12088;53.078;8.720;2022-08-16T09:17:10;29.10;99.90
23815;DHT22;12088;53.078;8.720;2022-08-16T09:19:35;28.80;99.90
23815;DHT22;12088;53.078;8.720;2022-08-16T09:22:05;28.80;99.90
23815;DHT22;12088;53.078;8.720;2022-08-16T09:24:31;28.40;99.90
23815;DHT22;12088;53.078;8.720;2022-08-16T09:26:57;28.10;99.90
23815;DHT22;12088;53.078;8.720;2022-08-16T09:29:23;28.00;99.90
23815;DHT22;12088;53.078;8.720;2022-08-16T09:31:49;27.80;99.90
23815;DHT22;12088;53.078;8.720;2022-08-16T09:34:15;27.40;99.90
23815;DHT22;12088;53.078;8.720;2022-08-16T09:36:41;27.40;99.90
23815;DHT22;12088;53.078;8.720;2022-08-16T09:39:06;27.30;99.90
23815;DHT22;12088;53.078;8.720;2022-08-16T09:41:32;27.20;99.90
23815;DHT22;12088;53.078;8.720;2022-08-16T09:43:58;27.20;99.90
23815;DHT22;12088;53.078;8.720;2022-08-16T09:46:24;27.30;99.90
23815;DHT22;12088;53.078;8.720;2022-08-16T09:48:51;27.20;99.90
23815;DHT22;12088;53.078;8.720;2022-08-16T09:51:19;27.00;99.90
23815;DHT22;12088;53.078;8.720;2022-08-16T09:53:44;27.00;99.90
23815;DHT22;12088;53.078;8.720;2022-08-16T09:56:29;27.00;99.90
23815;DHT22;12088;53.078;8.720;2022-08-16T09:58:56;27.00;99.90
23815;DHT22;12088;53.078;8.720;2022-08-16T10:01:22;27.00;99.90
23815;DHT22;12088;53.078;8.720;2022-08-16T10:03:49;26.90;99.90
23815;DHT22;12088;53.078;8.720;2022-08-16T10:06:16;27.10;99.90
23815;DHT22;12088;53.078;8.720;2022-08-16T10:08:42;27.20;99.90
23815;DHT22;12088;53.078;8.720;2022-08-16T10:11:07;27.20;99.90
23815;DHT22;12088;53.078;8.720;2022-08-16T10:13:51;27.40;99.90
23815;DHT22;12088;53.078;8.720;2022-08-16T10:16:17;27.70;99.90
23815;DHT22;12088;53.078;8.720;2022-08-16T10:18:43;27.90;99.90
23815;DHT22;12088;53.078;8.720;2022-08-16T10:21:08;27.90;99.90
23815;DHT22;12088;53.078;8.720;2022-08-16T10:23:34;28.30;99.90
23815;DHT22;12088;53.078;8.720;2022-08-16T10:26:00;28.60;99.90
23815;DHT22;12088;53.078;8.720;2022-08-16T10:28:27;28.80;99.90
23815;DHT22;12088;53.078;8.720;2022-08-16T10:30:53;29.30;99.90
23815;DHT22;12088;53.078;8.720;2022-08-16T10:33:18;29.40;99.90
23815;DHT22;12088;53.078;8.720;2022-08-16T10:35:45;29.40;99.90
23815;DHT22;12088;53.078;8.720;2022-08-16T10:38:12;29.80;99.90
23815;DHT22;12088;53.078;8.720;2022-08-16T10:40:39;29.60;99.90
23815;DHT22;12088;53.078;8.720;2022-08-16T10:43:05;29.60;99.90
23815;DHT22;12088;53.078;8.720;2022-08-16T10:45:31;29.90;99.90
23815;DHT22;12088;53.078;8.720;2022-08-16T10:47:57;30.30;99.90
23815;DHT22;12088;53.078;8.720;2022-08-16T10:50:23;30.80;99.90
23815;DHT22;12088;53.078;8.720;2022-08-16T10:52:48;30.50;99.90
23815;DHT22;12088;53.078;8.720;2022-08-16T10:55:14;30.90;99.90
23815;DHT22;12088;53.078;8.720;2022-08-16T10:57:40;30.90;99.90
23815;DHT22;12088;53.078;8.720;2022-08-16T11:00:08;32.70;99.90
23815;DHT22;12088;53.078;8.720;2022-08-16T11:02:37;33.80;99.90
23815;DHT22;12088;53.078;8.720;2022-08-16T11:05:04;34.90;99.90
23815;DHT22;12088;53.078;8.720;2022-08-16T11:07:30;35.40;99.90
23815;DHT22;12088;53.078;8.720;2022-08-16T11:09:56;35.90;99.90
23815;DHT22;12088;53.078;8.720;2022-08-16T11:12:23;36.10;99.90
23815;DHT22;12088;53.078;8.720;2022-08-16T11:14:49;36.30;99.90
23815;DHT22;12088;53.078;8.720;2022-08-16T11:17:15;37.50;97.20
23815;DHT22;12088;53.078;8.720;2022-08-16T11:19:40;38.40;96.90
23815;DHT22;12088;53.078;8.720;2022-08-16T11:22:06;38.70;91.40
23815;DHT22;12088;53.078;8.720;2022-08-16T11:24:32;39.10;95.40
23815;DHT22;12088;53.078;8.720;2022-08-16T11:26:58;39.90;92.30
23815;DHT22;12088;53.078;8.720;2022-08-16T11:29:23;40.60;94.50
23815;DHT22;12088;53.078;8.720;2022-08-16T11:31:49;40.80;90.80
23815;DHT22;12088;53.078;8.720;2022-08-16T11:34:15;41.30;91.40
23815;DHT22;12088;53.078;8.720;2022-08-16T11:36:41;41.60;92.00
23815;DHT22;12088;53.078;8.720;2022-08-16T11:39:06;41.90;88.60
23815;DHT22;12088;53.078;8.720;2022-08-16T11:41:32;42.00;87.00
23815;DHT22;12088;53.078;8.720;2022-08-16T11:44:00;41.20;85.40
23815;DHT22;12088;53.078;8.720;2022-08-16T11:46:26;40.40;87.90
23815;DHT22;12088;53.078;8.720;2022-08-16T11:48:52;41.20;83.30
23815;DHT22;12088;53.078;8.720;2022-08-16T11:51:18;41.50;85.30
23815;DHT22;12088;53.078;8.720;2022-08-16T11:53:43;40.80;80.40
23815;DHT22;12088;53.078;8.720;2022-08-16T11:56:09;40.00;78.90
23815;DHT22;12088;53.078;8.720;2022-08-16T11:58:34;40.40;86.10
23815;DHT22;12088;53.078;8.720;2022-08-16T12:01:04;40.80;80.50
23815;DHT22;12088;53.078;8.720;2022-08-16T12:03:30;40.50;82.70
23815;DHT22;12088;53.078;8.720;2022-08-16T12:06:00;41.10;80.90
23815;DHT22;12088;53.078;8.720;2022-08-16T12:08:29;41.60;77.60
23815;DHT22;12088;53.078;8.720;2022-08-16T12:10:54;40.30;81.40
23815;DHT22;12088;53.078;8.720;2022-08-16T12:13:20;39.50;80.30
23815;DHT22;12088;53.078;8.720;2022-08-16T12:15:46;40.20;85.70
23815;DHT22;12088;53.078;8.720;2022-08-16T12:18:11;40.90;85.50
23815;DHT22;12088;53.078;8.720;2022-08-16T12:20:40;41.20;83.90
23815;DHT22;12088;53.078;8.720;2022-08-16T12:23:06;41.70;81.40
23815;DHT22;12088;53.078;8.720;2022-08-16T12:25:33;42.50;79.20
23815;DHT22;12088;53.078;8.720;2022-08-16T12:27:59;43.20;75.70
23815;DHT22;12088;53.078;8.720;2022-08-16T12:30:29;43.20;80.00
23815;DHT22;12088;53.078;8.720;2022-08-16T12:32:56;42.90;78.70
23815;DHT22;12088;53.078;8.720;2022-08-16T12:35:22;41.70;80.80
23815;DHT22;12088;53.078;8.720;2022-08-16T12:37:49;40.50;79.40
23815;DHT22;12088;53.078;8.720;2022-08-16T12:40:18;40.60;82.10
23815;DHT22;12088;53.078;8.720;2022-08-16T12:42:46;40.70;80.90
23815;DHT22;12088;53.078;8.720;2022-08-16T12:45:15;39.40;78.20
23815;DHT22;12088;53.078;8.720;2022-08-16T12:47:41;37.20;81.80
23815;DHT22;12088;53.078;8.720;2022-08-16T12:50:25;35.30;88.70
23815;DHT22;12088;53.078;8.720;2022-08-16T12:52:51;33.90;90.90
23815;DHT22;12088;53.078;8.720;2022-08-16T12:55:17;34.80;91.90
23815;DHT22;12088;53.078;8.720;2022-08-16T12:57:43;37.00;86.90
23815;DHT22;12088;53.078;8.720;2022-08-16T13:00:11;37.90;88.10
23815;DHT22;12088;53.078;8.720;2022-08-16T13:02:42;36.60;84.00
23815;DHT22;12088;53.078;8.720;2022-08-16T13:05:08;35.70;90.00
23815;DHT22;12088;53.078;8.720;2022-08-16T13:07:35;34.80;90.30
23815;DHT22;12088;53.078;8.720;2022-08-16T13:10:01;35.50;90.60
23815;DHT22;12088;53.078;8.720;2022-08-16T13:12:36;36.90;91.20
23815;DHT22;12088;53.078;8.720;2022-08-16T13:15:06;37.20;90.50
23815;DHT22;12088;53.078;8.720;2022-08-16T13:17:36;37.10;90.50
23815;DHT22;12088;53.078;8.720;2022-08-16T13:20:05;37.00;87.90
23815;DHT22;12088;53.078;8.720;2022-08-16T13:22:31;35.60;88.00
23815;DHT22;12088;53.078;8.720;2022-08-16T13:24:57;34.20;90.80
23815;DHT22;12088;53.078;8.720;2022-08-16T13:27:23;33.40;91.50
23815;DHT22;12088;53.078;8.720;2022-08-16T13:29:48;32.80;92.60
23815;DHT22;12088;53.078;8.720;2022-08-16T13:32:14;32.30;93.10
23815;DHT22;12088;53.078;8.720;2022-08-16T13:34:39;31.90;93.80
23815;DHT22;12088;53.078;8.720;2022-08-16T13:37:05;31.80;94.80
23815;DHT22;12088;53.078;8.720;2022-08-16T13:39:30;31.40;95.50
23815;DHT22;12088;53.078;8.720;2022-08-16T13:41:57;31.40;95.60
23815;DHT22;12088;53.078;8.720;2022-08-16T13:44:22;31.40;96.10
23815;DHT22;12088;53.078;8.720;2022-08-16T13:46:48;32.00;94.40
23815;DHT22;12088;53.078;8.720;2022-08-16T13:49:14;34.20;95.30
23815;DHT22;12088;53.078;8.720;2022-08-16T13:51:40;36.40;92.10
23815;DHT22;12088;53.078;8.720;2022-08-16T13:54:06;37.80;86.40
23815;DHT22;12088;53.078;8.720;2022-08-16T13:56:34;38.80;80.60
23815;DHT22;12088;53.078;8.720;2022-08-16T13:59:08;39.10;85.90
23815;DHT22;12088;53.078;8.720;2022-08-16T14:01:34;39.60;86.30
23815;DHT22;12088;53.078;8.720;2022-08-16T14:03:59;39.60;83.90
23815;DHT22;12088;53.078;8.720;2022-08-16T14:06:26;40.10;80.60
23815;DHT22;12088;53.078;8.720;2022-08-16T14:08:52;38.90;78.30
23815;DHT22;12088;53.078;8.720;2022-08-16T14:11:17;37.10;84.60
23815;DHT22;12088;53.078;8.720;2022-08-16T14:13:43;35.50;90.00
23815;DHT22;12088;53.078;8.720;2022-08-16T14:16:09;34.20;90.30
23815;DHT22;12088;53.078;8.720;2022-08-16T14:18:34;33.20;91.30
23815;DHT22;12088;53.078;8.720;2022-08-16T14:21:00;32.30;92.00
23815;DHT22;12088;53.078;8.720;2022-08-16T14:23:25;31.80;94.60
23815;DHT22;12088;53.078;8.720;2022-08-16T14:25:51;31.40;94.50
23815;DHT22;12088;53.078;8.720;2022-08-16T14:28:17;31.80;95.20
23815;DHT22;12088;53.078;8.720;2022-08-16T14:30:43;33.30;95.10
23815;DHT22;12088;53.078;8.720;2022-08-16T14:33:08;34.40;91.50
23815;DHT22;12088;53.078;8.720;2022-08-16T14:35:34;33.70;91.10
23815;DHT22;12088;53.078;8.720;2022-08-16T14:38:00;33.50;93.30
23815;DHT22;12088;53.078;8.720;2022-08-16T14:40:25;33.10;93.80
23815;DHT22;12088;53.078;8.720;2022-08-16T14:42:52;32.50;96.00
23815;DHT22;12088;53.078;8.720;2022-08-16T14:45:20;32.00;94.00
23815;DHT22;12088;53.078;8.720;2022-08-16T14:47:46;31.40;95.40
23815;DHT22;12088;53.078;8.720;2022-08-16T14:50:14;31.00;97.90
23815;DHT22;12088;53.078;8.720;2022-08-16T14:52:44;30.80;97.60
23815;DHT22;12088;53.078;8.720;2022-08-16T14:55:12;30.50;98.00
23815;DHT22;12088;53.078;8.720;2022-08-16T14:57:38;30.30;98.60
23815;DHT22;12088;53.078;8.720;2022-08-16T15:00:07;30.00;98.30
23815;DHT22;12088;53.078;8.720;2022-08-16T15:02:33;29.50;97.10
23815;DHT22;12088;53.078;8.720;2022-08-16T15:04:59;28.90;96.00
23815;DHT22;12088;53.078;8.720;2022-08-16T15:07:24;28.50;96.70
23815;DHT22;12088;53.078;8.720;2022-08-16T15:09:50;28.30;98.10
23815;DHT22;12088;53.078;8.720;2022-08-16T15:12:19;27.60;99.90
23815;DHT22;12088;53.078;8.720;2022-08-16T15:14:50;27.20;99.90
23815;DHT22;12088;53.078;8.720;2022-08-16T15:17:19;26.90;99.90
23815;DHT22;12088;53.078;8.720;2022-08-16T15:19:45;27.10;99.90
23815;DHT22;12088;53.078;8.720;2022-08-16T15:22:14;27.30;99.90
23815;DHT22;12088;53.078;8.720;2022-08-16T15:24:41;27.70;99.90
23815;DHT22;12088;53.078;8.720;2022-08-16T15:27:07;28.10;99.90